createdAt,value
2023-03-10T00:01:22.458Z,94455.73
2023-03-10T00:03:49.686Z,94455.55
2023-03-10T00:06:19.947Z,94455.91
2023-03-10T00:08:47.069Z,94459.32
2023-03-10T00:11:14.779Z,94461.45
2023-03-10T00:13:42.552Z,94466.17
2023-03-10T00:16:20.885Z,94468.16
2023-03-10T00:18:48.468Z,94469.55
2023-03-10T00:21:17.090Z,94470.69
2023-03-10T00:23:44.401Z,94466.84
2023-03-10T00:26:15.832Z,94463.10
2023-03-10T00:28:42.960Z,94465.23
2023-03-10T00:31:15.652Z,94468.27
2023-03-10T00:33:45.438Z,94466.80
2023-03-10T00:36:24.368Z,94461.38
2023-03-10T00:38:52.406Z,94457.34
2023-03-10T00:41:21.962Z,94450.59
2023-03-10T00:43:49.251Z,94445.63
2023-03-10T00:46:16.606Z,94439.92
2023-03-10T00:48:44.185Z,94435.23
2023-03-10T00:51:12.313Z,94436.34
2023-03-10T00:53:40.647Z,94437.60
2023-03-10T00:56:09.179Z,94434.20
2023-03-10T00:58:36.462Z,94431.80
2023-03-10T01:01:05.727Z,94432.43
2023-03-10T01:03:32.610Z,94435.05
2023-03-10T01:05:59.488Z,94436.11
2023-03-10T01:08:26.320Z,94436.61
2023-03-10T01:10:53.289Z,94437.42
2023-03-10T01:13:22.181Z,94441.09
2023-03-10T01:15:50.694Z,94441.31
2023-03-10T01:18:19.417Z,94439.64
2023-03-10T01:20:47.474Z,94436.45
2023-03-10T01:23:19.860Z,94436.76
2023-03-10T01:25:47.065Z,94437.10
2023-03-10T01:28:14.148Z,94436.92
2023-03-10T01:30:41.633Z,94434.56
2023-03-10T01:33:09.858Z,94429.71
2023-03-10T01:35:37.592Z,94430.15
2023-03-10T01:38:04.922Z,94432.47
2023-03-10T01:40:32.179Z,94434.55
2023-03-10T01:43:38.643Z,94437.88
2023-03-10T01:46:29.752Z,94439.92
2023-03-10T01:49:02.582Z,94439.28
2023-03-10T01:51:32.038Z,94443.38
2023-03-10T01:53:59.412Z,94448.20
2023-03-10T01:56:26.742Z,94447.36
2023-03-10T01:58:54.291Z,94448.95
2023-03-10T02:01:21.860Z,94450.46
2023-03-10T02:04:00.377Z,94453.11
2023-03-10T02:06:27.725Z,94450.21
2023-03-10T02:08:59.181Z,94447.54
2023-03-10T02:11:26.078Z,94444.49
2023-03-10T02:13:54.308Z,94445.52
2023-03-10T02:16:22.391Z,94447.10
2023-03-10T02:18:50.101Z,94449.20
2023-03-10T02:21:32.095Z,94450.06
2023-03-10T02:24:07.637Z,94446.41
2023-03-10T02:32:38.288Z,94453.05
2023-03-10T02:35:06.089Z,94454.17
2023-03-10T02:37:36.678Z,94449.13
2023-03-10T02:40:05.604Z,94447.83
2023-03-10T02:42:35.321Z,94449.57
2023-03-10T02:45:04.006Z,94444.55
2023-03-10T02:47:32.765Z,94445.08
2023-03-10T02:49:59.635Z,94445.23
2023-03-10T02:52:44.755Z,94446.53
2023-03-10T02:55:16.202Z,94443.08
2023-03-10T02:57:44.013Z,94441.18
2023-03-10T03:00:12.315Z,94446.75
2023-03-10T03:02:39.935Z,94450.45
2023-03-10T03:05:07.455Z,94450.88
2023-03-10T03:07:34.491Z,94454.88
2023-03-10T03:10:02.963Z,94448.89
2023-03-10T03:12:30.037Z,94447.23
2023-03-10T03:14:56.862Z,94445.64
2023-03-10T03:17:23.709Z,94450.55
2023-03-10T03:19:50.728Z,94448.48
2023-03-10T03:22:17.759Z,94443.84
2023-03-10T03:24:44.690Z,94441.79
2023-03-10T03:27:11.592Z,94434.20
2023-03-10T03:29:38.481Z,94437.89
2023-03-10T03:32:06.662Z,94434.58
2023-03-10T03:34:34.577Z,94432.00
2023-03-10T03:37:02.853Z,94429.67
2023-03-10T03:39:33.666Z,94425.83
2023-03-10T03:42:02.913Z,94425.42
2023-03-10T03:44:34.154Z,94426.92
2023-03-10T03:47:01.043Z,94434.22
2023-03-10T03:49:28.254Z,94440.95
2023-03-10T03:51:55.261Z,94444.23
2023-03-10T03:54:23.023Z,94446.21
2023-03-10T03:56:49.871Z,94444.42
2023-03-10T03:59:17.630Z,94438.06
2023-03-10T04:01:44.711Z,94437.48
2023-03-10T04:04:11.618Z,94434.95
2023-03-10T04:06:38.550Z,94437.90
2023-03-10T04:09:06.770Z,94443.23
2023-03-10T04:11:33.672Z,94445.02
2023-03-10T04:14:00.671Z,94442.11
2023-03-10T04:16:27.794Z,94442.23
2023-03-10T04:18:54.726Z,94437.48
2023-03-10T04:21:21.555Z,94435.51
2023-03-10T04:23:49.799Z,94430.23
2023-03-10T04:26:19.245Z,94422.16
2023-03-10T04:28:46.215Z,94423.41
2023-03-10T04:31:16.895Z,94429.79
2023-03-10T04:33:44.796Z,94429.79
2023-03-10T04:36:12.420Z,94428.33
2023-03-10T04:38:40.383Z,94417.83
2023-03-10T04:41:09.559Z,94418.95
2023-03-10T04:43:42.006Z,94418.56
2023-03-10T04:46:09.965Z,94413.85
2023-03-10T04:48:37.914Z,94412.00
2023-03-10T04:51:07.776Z,94411.14
2023-03-10T04:53:38.577Z,94411.02
2023-03-10T04:56:08.005Z,94408.63
2023-03-10T04:58:36.309Z,94408.02
2023-03-10T05:01:10.480Z,94402.05
2023-03-10T05:03:39.915Z,94396.50
2023-03-10T05:06:16.583Z,94393.81
2023-03-10T05:08:46.798Z,94389.60
2023-03-10T05:11:14.527Z,94384.17
2023-03-10T05:13:41.427Z,94376.83
2023-03-10T05:16:16.458Z,94382.68
2023-03-10T05:18:44.478Z,94382.39
2023-03-10T05:21:12.148Z,94384.27
2023-03-10T05:23:39.542Z,94383.73
2023-03-10T05:26:08.665Z,94379.05
2023-03-10T05:28:36.909Z,94377.11
2023-03-10T05:31:13.373Z,94375.13
2023-03-10T05:33:42.371Z,94373.44
2023-03-10T05:36:12.700Z,94371.89
2023-03-10T05:38:40.042Z,94369.46
2023-03-10T05:41:09.611Z,94368.59
2023-03-10T05:43:38.082Z,94372.44
2023-03-10T05:46:06.126Z,94374.31
2023-03-10T05:48:35.313Z,94367.96
2023-03-10T05:51:03.799Z,94366.47
2023-03-10T05:53:32.974Z,94361.94
2023-03-10T05:56:05.744Z,94362.41
2023-03-10T05:58:32.824Z,94367.97
2023-03-10T06:01:00.127Z,94370.62
2023-03-10T06:03:28.746Z,94365.62
2023-03-10T06:05:59.574Z,94368.64
2023-03-10T06:08:29.978Z,94368.29
2023-03-10T06:10:57.876Z,94369.88
2023-03-10T06:13:25.191Z,94372.40
2023-03-10T06:15:55.054Z,94376.38
2023-03-10T06:18:22.375Z,94380.20
2023-03-10T06:20:53.681Z,94379.68
2023-03-10T06:23:21.645Z,94378.60
2023-03-10T06:26:02.165Z,94379.99
2023-03-10T06:28:33.488Z,94379.37
2023-03-10T06:31:02.081Z,94381.63
2023-03-10T06:33:30.121Z,94381.79
2023-03-10T06:35:57.612Z,94380.88
2023-03-10T06:38:25.248Z,94381.69
2023-03-10T06:40:52.308Z,94379.30
2023-03-10T06:43:20.276Z,94375.53
2023-03-10T06:45:49.322Z,94378.70
2023-03-10T06:48:16.752Z,94379.65
2023-03-10T06:50:48.234Z,94381.48
2023-03-10T06:53:17.562Z,94383.83
2023-03-10T06:55:44.550Z,94383.78
2023-03-10T06:58:11.570Z,94385.14
2023-03-10T07:00:39.783Z,94385.63
2023-03-10T07:03:06.872Z,94386.38
2023-03-10T07:05:33.964Z,94383.55
2023-03-10T07:08:00.786Z,94378.74
2023-03-10T07:10:27.641Z,94378.80
2023-03-10T07:12:58.905Z,94373.55
2023-03-10T07:15:27.002Z,94371.59
2023-03-10T07:17:56.288Z,94364.55
2023-03-10T07:20:24.447Z,94364.07
2023-03-10T07:22:51.502Z,94362.23
2023-03-10T07:25:19.022Z,94362.73
2023-03-10T07:27:45.777Z,94359.20
2023-03-10T07:30:13.169Z,94351.27
2023-03-10T07:32:40.099Z,94354.91
2023-03-10T07:35:07.404Z,94361.20
2023-03-10T07:37:37.828Z,94360.54
2023-03-10T07:40:06.339Z,94354.98
2023-03-10T07:42:33.319Z,94348.29
2023-03-10T07:45:00.193Z,94347.10
2023-03-10T07:47:27.147Z,94338.20
2023-03-10T07:49:54.036Z,94326.64
2023-03-10T07:52:20.928Z,94320.86
2023-03-10T07:54:48.456Z,94318.02
2023-03-10T07:57:15.727Z,94311.86
2023-03-10T07:59:43.022Z,94303.52
2023-03-10T08:02:13.089Z,94307.23
2023-03-10T08:04:40.708Z,94303.23
2023-03-10T08:07:08.705Z,94300.09
2023-03-10T08:09:35.694Z,94297.73
2023-03-10T08:12:03.533Z,94299.08
2023-03-10T08:14:32.155Z,94294.34
2023-03-10T08:16:59.369Z,94290.47
2023-03-10T08:19:27.680Z,94281.38
2023-03-10T08:21:56.598Z,94271.98
2023-03-10T08:24:24.870Z,94271.17
2023-03-10T08:26:51.816Z,94265.70
2023-03-10T08:29:18.626Z,94263.52
2023-03-10T08:31:45.698Z,94252.99
2023-03-10T08:34:13.754Z,94248.21
2023-03-10T08:36:41.015Z,94246.90
2023-03-10T08:39:08.648Z,94245.08
2023-03-10T08:41:46.130Z,94243.77
2023-03-10T08:44:15.633Z,94246.79
2023-03-10T08:46:46.603Z,94245.31
2023-03-10T08:49:16.243Z,94239.14
2023-03-10T08:51:43.527Z,94233.62
2023-03-10T08:54:15.256Z,94223.55
2023-03-10T08:56:42.166Z,94221.16
2023-03-10T08:59:09.024Z,94216.31
2023-03-10T09:01:37.741Z,94217.83
2023-03-10T09:04:06.661Z,94214.27
2023-03-10T09:06:34.324Z,94208.88
2023-03-10T09:09:01.906Z,94206.18
2023-03-10T09:16:57.423Z,94198.08
2023-03-10T09:19:24.396Z,94192.36
2023-03-10T09:21:51.221Z,94191.13
2023-03-10T09:24:19.482Z,94188.63
2023-03-10T09:29:12.206Z,94176.25
2023-03-10T09:31:39.793Z,94176.21
2023-03-10T09:34:08.298Z,94177.59
2023-03-10T09:36:35.688Z,94176.02
2023-03-10T09:39:02.977Z,94170.94
2023-03-10T09:41:38.687Z,94169.73
2023-03-10T09:44:27.166Z,94169.11
2023-03-10T09:47:25.272Z,94165.79
2023-03-10T09:50:01.218Z,94156.55
2023-03-10T09:52:34.257Z,94158.90
2023-03-10T09:55:14.018Z,94160.27
2023-03-10T09:57:41.160Z,94156.64
2023-03-10T10:00:11.751Z,94151.94
2023-03-10T10:02:46.486Z,94147.73
2023-03-10T10:05:24.024Z,94150.77
2023-03-10T10:07:55.993Z,94146.69
2023-03-10T10:10:31.618Z,94140.40
2023-03-10T10:13:03.075Z,94137.92
2023-03-10T10:16:24.730Z,94135.98
2023-03-10T10:19:12.070Z,94125.12
2023-03-10T10:21:49.012Z,94119.41
2023-03-10T10:24:17.407Z,94116.77
2023-03-10T10:26:44.458Z,94109.48
2023-03-10T10:29:24.783Z,94110.56
2023-03-10T10:32:12.630Z,94111.90
2023-03-10T10:34:47.146Z,94109.67
2023-03-10T10:37:37.247Z,94107.11
2023-03-10T10:40:23.473Z,94104.14
2023-03-10T10:42:57.747Z,94103.67
2023-03-10T10:45:35.777Z,94106.90
2023-03-10T10:48:03.744Z,94106.43
2023-03-10T10:50:37.441Z,94104.44
2023-03-10T10:53:16.524Z,94104.95
2023-03-10T10:55:45.458Z,94103.70
2023-03-10T10:58:27.198Z,94102.77
2023-03-10T11:01:04.971Z,94105.96
2023-03-10T11:03:38.781Z,94102.15
2023-03-10T11:06:27.253Z,94092.36
2023-03-10T11:09:06.442Z,94084.11
2023-03-10T11:11:34.253Z,94078.95
2023-03-10T11:14:20.918Z,94076.02
2023-03-10T11:17:06.986Z,94077.00
2023-03-10T11:19:56.169Z,94068.08
2023-03-10T11:22:38.357Z,94053.03
2023-03-10T11:25:15.759Z,94048.92
2023-03-10T11:28:03.454Z,94047.95
2023-03-10T11:30:34.359Z,94022.98
2023-03-10T11:33:23.754Z,94016.73
2023-03-10T11:35:55.169Z,94021.41
2023-03-10T11:38:34.286Z,94014.17
2023-03-10T11:41:31.018Z,94004.76
2023-03-10T11:44:21.037Z,93996.73
2023-03-10T11:46:53.444Z,94005.18
2023-03-10T11:49:26.897Z,94005.02
2023-03-10T11:51:59.784Z,93995.48
2023-03-10T11:54:33.147Z,93991.20
2023-03-10T11:57:03.814Z,93988.40
2023-03-10T11:59:34.317Z,93963.35
2023-03-10T12:02:11.795Z,93959.95
2023-03-10T12:05:00.133Z,93959.75
2023-03-10T12:07:34.703Z,93947.30
2023-03-10T12:10:04.714Z,93944.17
2023-03-10T12:12:36.281Z,93941.58
2023-03-10T12:15:12.787Z,93945.61
2023-03-10T12:17:41.380Z,93931.80
2023-03-10T12:20:18.441Z,93933.95
2023-03-10T12:22:51.030Z,93940.95
2023-03-10T12:25:38.211Z,93932.91
2023-03-10T12:28:16.771Z,93911.30
2023-03-10T12:31:06.617Z,93904.03
2023-03-10T12:33:42.624Z,93917.80
2023-03-10T12:36:13.238Z,93898.83
2023-03-10T12:38:47.760Z,93913.74
2023-03-10T12:41:45.496Z,93909.50
2023-03-10T12:44:51.913Z,93898.84
2023-03-10T12:47:21.153Z,93903.83
2023-03-10T12:49:58.267Z,93901.67
2023-03-10T12:52:47.834Z,93891.88
2023-03-10T12:55:33.633Z,93893.80
2023-03-10T12:58:21.014Z,93879.61
2023-03-10T13:00:55.775Z,93876.61
2023-03-10T13:03:58.710Z,93869.83
2023-03-10T13:06:46.509Z,93865.96
2023-03-10T13:09:14.590Z,93857.45
2023-03-10T13:11:45.421Z,93851.41
2023-03-10T13:14:21.780Z,93856.86
2023-03-10T13:17:00.960Z,93857.45
2023-03-10T13:19:31.233Z,93868.42
2023-03-10T13:21:59.101Z,93855.19
2023-03-10T13:24:36.032Z,93843.44
2023-03-10T13:27:05.164Z,93847.84
2023-03-10T13:29:32.311Z,93830.45
2023-03-10T13:31:59.543Z,93823.39
2023-03-10T13:34:29.259Z,93822.16
2023-03-10T13:37:11.114Z,93811.34
2023-03-10T13:39:38.464Z,93799.36
2023-03-10T13:42:28.477Z,93795.19
2023-03-10T13:45:01.953Z,93792.44
2023-03-10T13:47:31.215Z,93796.81
2023-03-10T13:50:01.496Z,93790.88
2023-03-10T13:52:31.101Z,93788.83
2023-03-10T13:55:15.858Z,93761.77
2023-03-10T13:57:44.707Z,93760.00
2023-03-10T14:00:15.972Z,93770.30
2023-03-10T14:02:45.235Z,93758.77
2023-03-10T14:05:41.961Z,93752.83
2023-03-10T14:08:32.494Z,93757.39
2023-03-10T14:11:24.090Z,93750.67
2023-03-10T14:13:51.781Z,93748.56
2023-03-10T14:16:18.707Z,93740.13
2023-03-10T14:18:47.934Z,93734.66
2023-03-10T14:21:24.482Z,93735.25
2023-03-10T14:23:51.887Z,93732.35
2023-03-10T14:26:18.686Z,93740.46
2023-03-10T14:28:45.729Z,93743.20
2023-03-10T14:31:23.870Z,93737.85
2023-03-10T14:33:51.541Z,93740.56
2023-03-10T14:36:18.609Z,93742.27
2023-03-10T14:38:45.989Z,93736.14
2023-03-10T14:41:14.116Z,93732.53
2023-03-10T14:43:41.994Z,93738.54
2023-03-10T14:46:11.982Z,93745.89
2023-03-10T14:48:41.944Z,93754.02
2023-03-10T14:51:22.519Z,93757.61
2023-03-10T14:53:55.821Z,93765.40
2023-03-10T14:56:22.955Z,93772.42
2023-03-10T14:58:52.575Z,93767.67
2023-03-10T15:01:21.220Z,93769.54
2023-03-10T15:03:51.739Z,93767.35
2023-03-10T15:06:20.205Z,93775.58
2023-03-10T15:08:47.138Z,93786.55
2023-03-10T15:11:15.929Z,93809.48
2023-03-10T15:13:44.322Z,93825.17
2023-03-10T15:16:13.808Z,93833.30
2023-03-10T15:18:40.626Z,93831.90
2023-03-10T15:21:08.993Z,93826.39
2023-03-10T15:23:35.936Z,93835.16
2023-03-10T15:26:09.580Z,93829.14
2023-03-10T15:28:37.428Z,93827.98
2023-03-10T15:31:04.696Z,93825.05
2023-03-10T15:33:32.091Z,93823.48
2023-03-10T15:35:59.566Z,93826.83
2023-03-10T15:38:26.343Z,93818.89
2023-03-10T15:40:53.221Z,93817.10
2023-03-10T15:43:20.040Z,93812.02
2023-03-10T15:45:49.224Z,93809.98
2023-03-10T15:48:16.866Z,93803.71
2023-03-10T15:50:47.078Z,93795.35
2023-03-10T15:53:14.115Z,93792.88
2023-03-10T15:55:42.030Z,93785.70
2023-03-10T15:58:10.868Z,93778.55
2023-03-10T16:00:38.237Z,93771.35
2023-03-10T16:03:05.242Z,93766.51
2023-03-10T16:05:32.178Z,93767.26
2023-03-10T16:07:58.992Z,93759.36
2023-03-10T16:10:25.842Z,93753.65
2023-03-10T16:12:52.946Z,93751.95
2023-03-10T16:15:22.015Z,93749.59
2023-03-10T16:17:48.980Z,93745.09
2023-03-10T16:20:19.156Z,93743.30
2023-03-10T16:22:46.169Z,93744.98
2023-03-10T16:25:19.026Z,93742.82
2023-03-10T16:27:46.901Z,93736.38
2023-03-10T16:30:15.808Z,93733.34
2023-03-10T16:32:50.070Z,93731.95
2023-03-10T16:35:17.986Z,93729.36
2023-03-10T16:37:44.956Z,93729.95
2023-03-10T16:40:12.393Z,93722.17
2023-03-10T16:42:39.333Z,93713.21
2023-03-10T16:45:06.982Z,93714.57
2023-03-10T16:47:33.869Z,93716.30
2023-03-10T16:50:00.764Z,93707.90
2023-03-10T16:52:27.623Z,93704.69
2023-03-10T16:54:58.647Z,93718.40
2023-03-10T16:57:25.514Z,93731.94
2023-03-10T16:59:52.366Z,93740.88
2023-03-10T17:02:19.315Z,93735.23
2023-03-10T17:04:46.204Z,93740.67
2023-03-10T17:07:14.280Z,93760.41
2023-03-10T17:09:41.325Z,93758.45
2023-03-10T17:12:08.343Z,93753.45
2023-03-10T17:14:35.368Z,93751.55
2023-03-10T17:17:02.496Z,93746.39
2023-03-10T17:19:30.227Z,93743.05
2023-03-10T17:22:01.350Z,93737.20
2023-03-10T17:24:29.547Z,93737.58
2023-03-10T17:26:56.537Z,93741.09
2023-03-10T17:29:23.414Z,93733.63
2023-03-10T17:31:51.840Z,93741.63
2023-03-10T17:34:20.067Z,93741.21
2023-03-10T17:36:50.347Z,93733.97
2023-03-10T17:39:19.920Z,93725.57
2023-03-10T17:41:47.820Z,93712.05
2023-03-10T17:44:15.528Z,93713.21
2023-03-10T17:46:42.446Z,93729.92
2023-03-10T17:49:14.153Z,93736.68
2023-03-10T17:51:51.279Z,93741.06
2023-03-10T17:54:20.961Z,93730.92
2023-03-10T17:56:48.516Z,93723.54
2023-03-10T17:59:16.395Z,93722.95
2023-03-10T18:01:45.216Z,93720.96
2023-03-10T18:04:12.795Z,93715.81
2023-03-10T18:06:39.613Z,93716.34
2023-03-10T18:09:09.069Z,93706.67
2023-03-10T18:11:36.361Z,93699.70
2023-03-10T18:14:04.289Z,93686.14
2023-03-10T18:16:34.680Z,93691.50
2023-03-10T18:19:02.081Z,93691.55
2023-03-10T18:21:29.028Z,93697.02
2023-03-10T18:23:56.089Z,93699.98
2023-03-10T18:26:28.434Z,93698.45
2023-03-10T18:28:55.240Z,93698.05
2023-03-10T18:31:28.670Z,93691.08
2023-03-10T18:33:55.858Z,93689.38
2023-03-10T18:36:24.639Z,93693.42
2023-03-10T18:38:52.141Z,93689.85
2023-03-10T18:41:20.938Z,93699.80
2023-03-10T18:43:47.833Z,93699.02
2023-03-10T18:46:14.710Z,93691.34
2023-03-10T18:48:41.842Z,93686.17
2023-03-10T18:51:08.710Z,93674.95
2023-03-10T18:53:37.562Z,93664.65
2023-03-10T18:56:04.943Z,93661.94
2023-03-10T18:58:33.137Z,93663.98
2023-03-10T19:01:00.034Z,93658.39
2023-03-10T19:03:31.058Z,93657.26
2023-03-10T19:05:58.272Z,93653.11
2023-03-10T19:08:27.150Z,93642.35
2023-03-10T19:10:57.335Z,93633.67
2023-03-10T19:13:25.268Z,93622.08
2023-03-10T19:15:52.224Z,93620.49
2023-03-10T19:18:19.178Z,93612.41
2023-03-10T19:20:46.593Z,93612.52
2023-03-10T19:23:14.756Z,93609.77
2023-03-10T19:25:41.915Z,93617.89
2023-03-10T19:28:08.814Z,93605.70
2023-03-10T19:30:35.961Z,93610.39
2023-03-10T19:33:02.890Z,93602.95
2023-03-10T19:35:29.726Z,93602.55
2023-03-10T19:37:56.661Z,93601.73
2023-03-10T19:40:23.781Z,93591.90
2023-03-10T19:42:50.766Z,93590.32
2023-03-10T19:45:18.881Z,93589.05
2023-03-10T19:47:46.513Z,93591.02
2023-03-10T19:50:16.244Z,93595.73
2023-03-10T19:52:46.996Z,93597.27
2023-03-10T19:55:19.996Z,93613.16
2023-03-10T19:57:48.694Z,93645.43
2023-03-10T20:00:18.964Z,93654.20
2023-03-10T20:02:46.342Z,93657.16
2023-03-10T20:05:16.940Z,93635.98
2023-03-10T20:07:46.730Z,93624.39
2023-03-10T20:10:17.321Z,93607.96
2023-03-10T20:12:44.825Z,93593.89
2023-03-10T20:15:11.718Z,93570.14
2023-03-10T20:17:38.684Z,93571.55
2023-03-10T20:20:10.503Z,93574.30
2023-03-10T20:22:39.334Z,93583.10
2023-03-10T20:25:08.672Z,93570.02
2023-03-10T20:27:36.072Z,93575.09
2023-03-10T20:30:10.777Z,93565.70
2023-03-10T20:32:37.757Z,93580.25
2023-03-10T20:35:05.276Z,93590.36
2023-03-10T20:37:33.767Z,93572.06
2023-03-10T20:40:00.533Z,93554.83
2023-03-10T20:42:27.312Z,93538.59
2023-03-10T20:44:54.268Z,93534.15
2023-03-10T20:47:21.045Z,93527.05
2023-03-10T20:49:59.095Z,93517.11
2023-03-10T20:52:26.239Z,93509.58
2023-03-10T20:54:53.862Z,93502.77
2023-03-10T20:57:21.193Z,93496.09
2023-03-10T20:59:48.243Z,93481.30
2023-03-10T21:02:16.788Z,93479.24
2023-03-10T21:04:44.217Z,93487.59
2023-03-10T21:07:11.453Z,93490.15
2023-03-10T21:09:38.412Z,93485.52
2023-03-10T21:12:05.266Z,93481.98
2023-03-10T21:14:32.010Z,93487.20
2023-03-10T21:17:00.054Z,93478.13
2023-03-10T21:19:27.744Z,93482.45
2023-03-10T21:21:55.211Z,93495.64
2023-03-10T21:24:22.157Z,93475.09
2023-03-10T21:26:49.062Z,93473.49
2023-03-10T21:29:15.918Z,93488.19
2023-03-10T21:31:42.781Z,93488.95
2023-03-10T21:34:09.556Z,93509.70
2023-03-10T21:36:36.424Z,93505.45
2023-03-10T21:39:03.738Z,93518.13
2023-03-10T21:41:30.992Z,93517.27
2023-03-10T21:43:59.088Z,93513.80
2023-03-10T21:46:26.439Z,93524.91
2023-03-10T21:48:54.095Z,93534.36
2023-03-10T21:51:23.422Z,93553.23
2023-03-10T21:53:51.109Z,93536.75
2023-03-10T21:56:17.928Z,93519.95
2023-03-10T21:58:46.275Z,93521.66
2023-03-10T22:01:15.778Z,93527.02
2023-03-10T22:03:43.177Z,93521.33
2023-03-10T22:06:10.256Z,93497.79
2023-03-10T22:08:38.251Z,93508.75
2023-03-10T22:11:07.024Z,93519.16
2023-03-10T22:13:35.137Z,93483.29
2023-03-10T22:16:04.414Z,93468.98
2023-03-10T22:18:31.611Z,93448.94
2023-03-10T22:20:58.474Z,93448.50
2023-03-10T22:23:25.608Z,93422.91
2023-03-10T22:25:52.379Z,93428.35
2023-03-10T22:28:19.128Z,93422.83
2023-03-10T22:30:45.934Z,93415.23
2023-03-10T22:33:12.803Z,93415.61
2023-03-10T22:35:39.692Z,93432.83
2023-03-10T22:38:06.687Z,93434.58
2023-03-10T22:40:33.924Z,93436.52
2023-03-10T22:43:00.729Z,93434.70
2023-03-10T22:45:30.694Z,93434.36
2023-03-10T22:48:03.665Z,93437.94
2023-03-10T22:50:36.708Z,93418.09
2023-03-10T22:53:05.844Z,93413.23
2023-03-10T22:55:35.703Z,93415.35
2023-03-10T22:58:04.711Z,93410.50
2023-03-10T23:00:32.206Z,93422.33
2023-03-10T23:02:59.420Z,93425.39
2023-03-10T23:05:27.339Z,93409.21
2023-03-10T23:07:54.966Z,93386.47
2023-03-10T23:10:23.869Z,93404.20
2023-03-10T23:12:52.209Z,93397.56
2023-03-10T23:15:25.225Z,93397.28
2023-03-10T23:17:54.148Z,93380.95
2023-03-10T23:20:24.245Z,93385.83
2023-03-10T23:22:51.293Z,93385.05
2023-03-10T23:25:25.311Z,93368.51
2023-03-10T23:27:52.166Z,93373.23
2023-03-10T23:30:19.703Z,93381.40
2023-03-10T23:32:49.333Z,93390.83
2023-03-10T23:35:20.463Z,93386.84
2023-03-10T23:37:47.389Z,93394.15
2023-03-10T23:40:16.616Z,93392.17
2023-03-10T23:42:43.977Z,93364.23
2023-03-10T23:45:17.426Z,93378.38
2023-03-10T23:47:45.413Z,93402.52
2023-03-10T23:50:19.326Z,93405.36
2023-03-10T23:52:47.065Z,93425.79
2023-03-10T23:55:22.405Z,93413.00
2023-03-10T23:57:49.424Z,93417.11
